Lehigh Valley International Airport
KABE : now visible

Airfield :











YOU CAN JOIN US ON...

 
LOGIN :

Register | Disclaimer

   EN    FR    IT 

 









Legend :    VFR   Marginal VFR   IFR   Intensive IFR   Very Intensive IFR
Visi :
Ceiling :
>= 8 km
>= 3000ft
5 to 8 km
1000 to 3000 ft
1500m to 5 km
500 to 1000 ft
800 to 1500m
200 to 500 ft
< 800m
< 200 ft
Symbols :   Thunderstorms  Fog  Heavy snow  Heavy precipitations  Wind > 20 kt






- Airport Elevation : 393 ft
- IATA code : ABE


KABE - Lehigh Valley International

CURRENT METAR :
  • 021251Z AUTO 00000KT 10SM CLR M06/M07 A3053 RMK AO2 SLP346 T10561072

EXPIRED METARs :
  • 021151Z 00000KT 10SM CLR M06/M08 A3053 RMK AO2 SLP345 T10611083 11033 21072 51011
  • 021051Z 00000KT 10SM CLR M07/M08 A3053 RMK AO2 SLP344 T10671083

TAF KABE
Valid from the 02 at 12:00 until the 03 at 12:00 UTC


021136Z 0212/0312 VRB03KT P6SM SKC
FM021600 20006KT P6SM SCT100
FM022300 VRB03KT P6SM BKN120
FM030800 19004KT P6SM OVC040 WS020/22045KT
TEMPO 0310/0312 4SM -SHRA BR OVC015
KZNY FIR / North America



MET'MAP, your aeronautical weather chart ! - Copyright ORBIFLY December 2007 - Disclaimer

ORBIFLY MET'MAP TEAM :

Programming & Development : Alexandra Zaïnal
Original concept : Baudouin d'Aumeries
Technical & hardware support : Manuel Goepfert
Assistance : Marc-Olivier Méhu




SOURCES & CREDITS :

   NOAA       Earth
Advisory